sensor_id;sensor_type;location;lat;lon;timestamp;temperature;humidity
12720;DHT22;6424;48.520;11.228;2023-04-05T00:02:22;-1.20;99.90
12720;DHT22;6424;48.520;11.228;2023-04-05T00:05:04;-1.20;99.90
12720;DHT22;6424;48.520;11.228;2023-04-05T00:07:45;-1.20;99.90
12720;DHT22;6424;48.520;11.228;2023-04-05T00:10:29;-1.20;99.90
12720;DHT22;6424;48.520;11.228;2023-04-05T00:13:10;-1.20;99.90
12720;DHT22;6424;48.520;11.228;2023-04-05T00:15:50;-1.20;99.90
12720;DHT22;6424;48.520;11.228;2023-04-05T00:18:31;-1.20;99.90
12720;DHT22;6424;48.520;11.228;2023-04-05T00:20:58;-1.20;99.90
12720;DHT22;6424;48.520;11.228;2023-04-05T00:23:40;-1.20;99.90
12720;DHT22;6424;48.520;11.228;2023-04-05T00:26:09;-1.30;99.90
12720;DHT22;6424;48.520;11.228;2023-04-05T00:28:50;-1.30;99.90
12720;DHT22;6424;48.520;11.228;2023-04-05T00:31:31;-1.30;99.90
12720;DHT22;6424;48.520;11.228;2023-04-05T00:34:11;-1.30;99.90
12720;DHT22;6424;48.520;11.228;2023-04-05T00:36:53;-1.20;99.90
12720;DHT22;6424;48.520;11.228;2023-04-05T00:39:19;-1.30;99.90
12720;DHT22;6424;48.520;11.228;2023-04-05T00:42:02;-1.30;99.90
12720;DHT22;6424;48.520;11.228;2023-04-05T00:44:43;-1.30;99.90
12720;DHT22;6424;48.520;11.228;2023-04-05T00:47:24;-1.30;99.90
12720;DHT22;6424;48.520;11.228;2023-04-05T00:50:05;-1.30;99.90
12720;DHT22;6424;48.520;11.228;2023-04-05T00:52:48;-1.30;99.90
12720;DHT22;6424;48.520;11.228;2023-04-05T00:55:16;-1.30;99.90
12720;DHT22;6424;48.520;11.228;2023-04-05T00:57:57;-1.40;99.90
12720;DHT22;6424;48.520;11.228;2023-04-05T01:00:39;-1.40;99.90
12720;DHT22;6424;48.520;11.228;2023-04-05T01:03:20;-1.40;99.90
12720;DHT22;6424;48.520;11.228;2023-04-05T01:08:59;-1.40;99.90
12720;DHT22;6424;48.520;11.228;2023-04-05T01:11:41;-1.40;99.90
12720;DHT22;6424;48.520;11.228;2023-04-05T01:14:24;-1.50;99.90
12720;DHT22;6424;48.520;11.228;2023-04-05T01:17:05;-1.50;99.90
12720;DHT22;6424;48.520;11.228;2023-04-05T01:19:58;-1.50;99.90
12720;DHT22;6424;48.520;11.228;2023-04-05T01:28:55;-1.50;99.90
12720;DHT22;6424;48.520;11.228;2023-04-05T01:31:47;-1.50;99.90
12720;DHT22;6424;48.520;11.228;2023-04-05T01:37:48;-1.60;99.90
12720;DHT22;6424;48.520;11.228;2023-04-05T01:40:31;-1.60;99.90
12720;DHT22;6424;48.520;11.228;2023-04-05T01:43:00;-1.60;99.90
12720;DHT22;6424;48.520;11.228;2023-04-05T01:45:42;-1.60;99.90
12720;DHT22;6424;48.520;11.228;2023-04-05T01:48:23;-1.60;99.90
12720;DHT22;6424;48.520;11.228;2023-04-05T01:51:04;-1.70;99.90
12720;DHT22;6424;48.520;11.228;2023-04-05T01:53:45;-1.70;99.90
12720;DHT22;6424;48.520;11.228;2023-04-05T01:56:26;-1.70;99.90
12720;DHT22;6424;48.520;11.228;2023-04-05T01:59:07;-1.70;99.90
12720;DHT22;6424;48.520;11.228;2023-04-05T02:01:48;-1.80;99.90
12720;DHT22;6424;48.520;11.228;2023-04-05T02:04:28;-1.80;99.90
12720;DHT22;6424;48.520;11.228;2023-04-05T02:07:09;-1.80;99.90
12720;DHT22;6424;48.520;11.228;2023-04-05T02:09:50;-1.70;99.90
12720;DHT22;6424;48.520;11.228;2023-04-05T02:12:31;-1.70;99.90
12720;DHT22;6424;48.520;11.228;2023-04-05T02:15:12;-1.70;99.90
12720;DHT22;6424;48.520;11.228;2023-04-05T02:17:52;-1.70;99.90
12720;DHT22;6424;48.520;11.228;2023-04-05T02:20:33;-1.70;99.90
12720;DHT22;6424;48.520;11.228;2023-04-05T02:23:14;-1.70;99.90
12720;DHT22;6424;48.520;11.228;2023-04-05T02:25:56;-1.70;99.90
12720;DHT22;6424;48.520;11.228;2023-04-05T02:28:36;-1.70;99.90
12720;DHT22;6424;48.520;11.228;2023-04-05T02:31:17;-1.80;99.90
12720;DHT22;6424;48.520;11.228;2023-04-05T02:33:43;-1.80;99.90
12720;DHT22;6424;48.520;11.228;2023-04-05T02:36:24;-1.80;99.90
12720;DHT22;6424;48.520;11.228;2023-04-05T02:39:07;-1.90;99.90
12720;DHT22;6424;48.520;11.228;2023-04-05T02:41:48;-2.00;99.90
12720;DHT22;6424;48.520;11.228;2023-04-05T02:44:29;-2.00;99.90
12720;DHT22;6424;48.520;11.228;2023-04-05T02:47:10;-2.10;99.90
12720;DHT22;6424;48.520;11.228;2023-04-05T02:49:50;-2.20;99.90
12720;DHT22;6424;48.520;11.228;2023-04-05T02:52:31;-2.20;99.90
12720;DHT22;6424;48.520;11.228;2023-04-05T02:55:13;-2.20;99.90
12720;DHT22;6424;48.520;11.228;2023-04-05T02:57:59;-2.20;99.90
12720;DHT22;6424;48.520;11.228;2023-04-05T03:00:45;-2.20;99.90
12720;DHT22;6424;48.520;11.228;2023-04-05T03:03:30;-2.20;99.90
12720;DHT22;6424;48.520;11.228;2023-04-05T03:06:11;-2.20;99.90
12720;DHT22;6424;48.520;11.228;2023-04-05T03:08:53;-2.10;99.90
12720;DHT22;6424;48.520;11.228;2023-04-05T03:11:35;-2.10;99.90
12720;DHT22;6424;48.520;11.228;2023-04-05T03:14:16;-2.10;99.90
12720;DHT22;6424;48.520;11.228;2023-04-05T03:16:57;-2.10;99.90
12720;DHT22;6424;48.520;11.228;2023-04-05T03:19:23;-2.10;99.90
12720;DHT22;6424;48.520;11.228;2023-04-05T03:22:05;-2.20;99.90
12720;DHT22;6424;48.520;11.228;2023-04-05T03:24:47;-2.20;99.90
12720;DHT22;6424;48.520;11.228;2023-04-05T03:27:27;-2.20;99.90
12720;DHT22;6424;48.520;11.228;2023-04-05T03:30:09;-2.20;99.90
12720;DHT22;6424;48.520;11.228;2023-04-05T03:32:49;-2.20;99.90
12720;DHT22;6424;48.520;11.228;2023-04-05T03:35:30;-2.20;99.90
12720;DHT22;6424;48.520;11.228;2023-04-05T03:38:11;-2.20;99.90
12720;DHT22;6424;48.520;11.228;2023-04-05T03:40:52;-2.20;99.90
12720;DHT22;6424;48.520;11.228;2023-04-05T03:43:33;-2.30;99.90
12720;DHT22;6424;48.520;11.228;2023-04-05T03:46:13;-2.30;99.90
12720;DHT22;6424;48.520;11.228;2023-04-05T03:48:55;-2.30;99.90
12720;DHT22;6424;48.520;11.228;2023-04-05T03:51:36;-2.30;99.90
12720;DHT22;6424;48.520;11.228;2023-04-05T03:54:17;-2.30;99.90
12720;DHT22;6424;48.520;11.228;2023-04-05T03:56:57;-2.30;99.90
12720;DHT22;6424;48.520;11.228;2023-04-05T03:59:38;-2.30;99.90
12720;DHT22;6424;48.520;11.228;2023-04-05T04:02:19;-2.40;99.90
12720;DHT22;6424;48.520;11.228;2023-04-05T04:05:00;-2.40;99.90
12720;DHT22;6424;48.520;11.228;2023-04-05T04:07:42;-2.40;99.90
12720;DHT22;6424;48.520;11.228;2023-04-05T04:10:23;-2.40;99.90
12720;DHT22;6424;48.520;11.228;2023-04-05T04:13:03;-2.40;99.90
12720;DHT22;6424;48.520;11.228;2023-04-05T04:15:44;-2.40;99.90
12720;DHT22;6424;48.520;11.228;2023-04-05T04:18:11;-2.40;99.90
12720;DHT22;6424;48.520;11.228;2023-04-05T04:20:51;-2.40;99.90
12720;DHT22;6424;48.520;11.228;2023-04-05T04:23:33;-2.40;99.90
12720;DHT22;6424;48.520;11.228;2023-04-05T04:26:14;-2.40;99.90
12720;DHT22;6424;48.520;11.228;2023-04-05T04:28:55;-2.40;99.90
12720;DHT22;6424;48.520;11.228;2023-04-05T04:31:36;-2.40;99.90
12720;DHT22;6424;48.520;11.228;2023-04-05T04:34:03;-2.40;99.90
12720;DHT22;6424;48.520;11.228;2023-04-05T04:36:44;-2.40;99.90
12720;DHT22;6424;48.520;11.228;2023-04-05T04:39:27;-2.40;99.90
12720;DHT22;6424;48.520;11.228;2023-04-05T04:41:56;-2.40;99.90
12720;DHT22;6424;48.520;11.228;2023-04-05T04:44:37;-2.40;99.90
12720;DHT22;6424;48.520;11.228;2023-04-05T04:47:17;-2.40;99.90
12720;DHT22;6424;48.520;11.228;2023-04-05T04:50:01;-2.40;99.90
12720;DHT22;6424;48.520;11.228;2023-04-05T04:52:42;-2.40;99.90
12720;DHT22;6424;48.520;11.228;2023-04-05T04:55:23;-2.40;99.90
12720;DHT22;6424;48.520;11.228;2023-04-05T04:58:08;-2.40;99.90
12720;DHT22;6424;48.520;11.228;2023-04-05T05:00:50;-2.40;99.90
12720;DHT22;6424;48.520;11.228;2023-04-05T05:03:34;-2.40;99.90
12720;DHT22;6424;48.520;11.228;2023-04-05T05:06:16;-2.40;99.90
12720;DHT22;6424;48.520;11.228;2023-04-05T05:08:58;-2.30;99.90
12720;DHT22;6424;48.520;11.228;2023-04-05T05:11:24;-1.90;99.90
12720;DHT22;6424;48.520;11.228;2023-04-05T05:13:50;-1.20;99.90
12720;DHT22;6424;48.520;11.228;2023-04-05T05:16:30;-0.30;99.90
12720;DHT22;6424;48.520;11.228;2023-04-05T05:19:13;0.70;99.90
12720;DHT22;6424;48.520;11.228;2023-04-05T05:21:53;1.70;99.90
12720;DHT22;6424;48.520;11.228;2023-04-05T05:24:34;2.70;99.90
12720;DHT22;6424;48.520;11.228;2023-04-05T05:27:15;3.50;99.90
12720;DHT22;6424;48.520;11.228;2023-04-05T05:29:56;4.10;99.90
12720;DHT22;6424;48.520;11.228;2023-04-05T05:32:37;4.90;99.90
12720;DHT22;6424;48.520;11.228;2023-04-05T05:35:17;5.60;99.90
12720;DHT22;6424;48.520;11.228;2023-04-05T05:37:58;6.30;99.90
12720;DHT22;6424;48.520;11.228;2023-04-05T05:40:39;6.80;99.90
12720;DHT22;6424;48.520;11.228;2023-04-05T05:43:04;7.20;99.90
12720;DHT22;6424;48.520;11.228;2023-04-05T05:45:45;7.50;99.90
12720;DHT22;6424;48.520;11.228;2023-04-05T05:48:26;7.90;99.90
12720;DHT22;6424;48.520;11.228;2023-04-05T05:51:07;8.30;98.00
12720;DHT22;6424;48.520;11.228;2023-04-05T05:53:51;8.60;96.40
12720;DHT22;6424;48.520;11.228;2023-04-05T05:56:31;8.80;92.20
12720;DHT22;6424;48.520;11.228;2023-04-05T05:59:12;8.80;92.80
12720;DHT22;6424;48.520;11.228;2023-04-05T06:01:54;8.90;90.10
12720;DHT22;6424;48.520;11.228;2023-04-05T06:04:35;8.60;86.60
12720;DHT22;6424;48.520;11.228;2023-04-05T06:07:15;8.40;86.60
12720;DHT22;6424;48.520;11.228;2023-04-05T06:09:57;8.40;86.70
12720;DHT22;6424;48.520;11.228;2023-04-05T06:12:38;8.30;86.10
12720;DHT22;6424;48.520;11.228;2023-04-05T06:15:19;8.40;86.90
12720;DHT22;6424;48.520;11.228;2023-04-05T06:17:45;8.10;85.90
12720;DHT22;6424;48.520;11.228;2023-04-05T06:20:25;8.20;86.70
12720;DHT22;6424;48.520;11.228;2023-04-05T06:23:06;8.30;83.00
12720;DHT22;6424;48.520;11.228;2023-04-05T06:25:47;8.20;80.10
12720;DHT22;6424;48.520;11.228;2023-04-05T06:28:28;7.80;82.00
12720;DHT22;6424;48.520;11.228;2023-04-05T06:31:08;7.50;83.20
12720;DHT22;6424;48.520;11.228;2023-04-05T06:33:49;7.10;84.20
12720;DHT22;6424;48.520;11.228;2023-04-05T06:36:30;6.50;84.30
12720;DHT22;6424;48.520;11.228;2023-04-05T06:39:11;5.90;87.40
12720;DHT22;6424;48.520;11.228;2023-04-05T06:41:52;5.60;89.30
12720;DHT22;6424;48.520;11.228;2023-04-05T06:44:33;5.50;90.70
12720;DHT22;6424;48.520;11.228;2023-04-05T06:47:14;5.40;90.60
12720;DHT22;6424;48.520;11.228;2023-04-05T06:49:55;5.30;91.10
12720;DHT22;6424;48.520;11.228;2023-04-05T06:52:36;5.30;91.90
12720;DHT22;6424;48.520;11.228;2023-04-05T06:55:17;5.40;92.00
12720;DHT22;6424;48.520;11.228;2023-04-05T06:57:58;5.30;91.50
12720;DHT22;6424;48.520;11.228;2023-04-05T07:00:38;5.30;92.50
12720;DHT22;6424;48.520;11.228;2023-04-05T07:03:19;5.30;92.10
12720;DHT22;6424;48.520;11.228;2023-04-05T07:06:00;5.20;92.00
12720;DHT22;6424;48.520;11.228;2023-04-05T07:08:42;5.10;92.30
12720;DHT22;6424;48.520;11.228;2023-04-05T07:11:23;5.20;93.00
12720;DHT22;6424;48.520;11.228;2023-04-05T07:14:03;5.10;93.50
12720;DHT22;6424;48.520;11.228;2023-04-05T07:16:29;5.10;93.40
12720;DHT22;6424;48.520;11.228;2023-04-05T07:19:10;5.10;91.80
12720;DHT22;6424;48.520;11.228;2023-04-05T07:21:51;5.10;90.60
12720;DHT22;6424;48.520;11.228;2023-04-05T07:24:32;5.10;92.00
12720;DHT22;6424;48.520;11.228;2023-04-05T07:27:14;5.20;90.00
12720;DHT22;6424;48.520;11.228;2023-04-05T07:29:55;5.10;90.10
12720;DHT22;6424;48.520;11.228;2023-04-05T07:32:21;5.20;88.90
12720;DHT22;6424;48.520;11.228;2023-04-05T07:35:02;5.20;87.70
12720;DHT22;6424;48.520;11.228;2023-04-05T07:37:44;5.00;87.60
12720;DHT22;6424;48.520;11.228;2023-04-05T07:40:25;5.00;89.50
12720;DHT22;6424;48.520;11.228;2023-04-05T07:43:05;4.90;87.20
12720;DHT22;6424;48.520;11.228;2023-04-05T07:45:46;5.00;87.40
12720;DHT22;6424;48.520;11.228;2023-04-05T07:48:12;5.00;88.00
12720;DHT22;6424;48.520;11.228;2023-04-05T07:50:53;5.00;85.50
12720;DHT22;6424;48.520;11.228;2023-04-05T07:53:19;5.00;86.00
12720;DHT22;6424;48.520;11.228;2023-04-05T07:56:07;5.20;86.80
12720;DHT22;6424;48.520;11.228;2023-04-05T07:58:48;5.30;86.40
12720;DHT22;6424;48.520;11.228;2023-04-05T08:01:31;5.50;86.20
12720;DHT22;6424;48.520;11.228;2023-04-05T08:04:11;5.80;83.20
12720;DHT22;6424;48.520;11.228;2023-04-05T08:06:37;5.80;83.90
12720;DHT22;6424;48.520;11.228;2023-04-05T08:09:18;5.90;84.50
12720;DHT22;6424;48.520;11.228;2023-04-05T08:11:59;6.00;83.50
12720;DHT22;6424;48.520;11.228;2023-04-05T08:14:42;6.10;80.80
12720;DHT22;6424;48.520;11.228;2023-04-05T08:17:22;6.10;81.70
12720;DHT22;6424;48.520;11.228;2023-04-05T08:20:06;6.10;77.90
12720;DHT22;6424;48.520;11.228;2023-04-05T08:22:47;5.90;79.40
12720;DHT22;6424;48.520;11.228;2023-04-05T08:25:28;6.00;80.80
12720;DHT22;6424;48.520;11.228;2023-04-05T08:28:09;6.00;77.30
12720;DHT22;6424;48.520;11.228;2023-04-05T08:30:54;6.10;78.70
12720;DHT22;6424;48.520;11.228;2023-04-05T08:33:36;5.90;78.50
12720;DHT22;6424;48.520;11.228;2023-04-05T08:36:16;5.90;79.60
12720;DHT22;6424;48.520;11.228;2023-04-05T08:38:57;6.00;79.40
12720;DHT22;6424;48.520;11.228;2023-04-05T08:41:40;6.00;80.00
12720;DHT22;6424;48.520;11.228;2023-04-05T08:44:25;6.30;79.60
12720;DHT22;6424;48.520;11.228;2023-04-05T08:47:09;6.50;76.50
12720;DHT22;6424;48.520;11.228;2023-04-05T08:49:43;6.60;76.10
12720;DHT22;6424;48.520;11.228;2023-04-05T08:52:25;6.70;74.60
12720;DHT22;6424;48.520;11.228;2023-04-05T08:55:06;6.80;74.20
12720;DHT22;6424;48.520;11.228;2023-04-05T08:57:49;6.70;73.50
12720;DHT22;6424;48.520;11.228;2023-04-05T09:00:32;6.60;73.30
12720;DHT22;6424;48.520;11.228;2023-04-05T09:03:16;6.60;74.40
12720;DHT22;6424;48.520;11.228;2023-04-05T09:05:58;6.50;73.80
12720;DHT22;6424;48.520;11.228;2023-04-05T09:08:24;6.70;75.50
12720;DHT22;6424;48.520;11.228;2023-04-05T09:10:50;6.80;72.60
12720;DHT22;6424;48.520;11.228;2023-04-05T09:13:31;7.00;73.10
12720;DHT22;6424;48.520;11.228;2023-04-05T09:16:13;7.10;73.50
12720;DHT22;6424;48.520;11.228;2023-04-05T09:18:55;7.20;73.40
12720;DHT22;6424;48.520;11.228;2023-04-05T09:24:41;7.10;69.00
12720;DHT22;6424;48.520;11.228;2023-04-05T09:27:22;7.20;71.60
12720;DHT22;6424;48.520;11.228;2023-04-05T09:30:20;7.20;70.10
12720;DHT22;6424;48.520;11.228;2023-04-05T09:33:03;7.00;69.30
12720;DHT22;6424;48.520;11.228;2023-04-05T09:35:44;7.10;69.60
12720;DHT22;6424;48.520;11.228;2023-04-05T09:38:42;7.10;70.10
12720;DHT22;6424;48.520;11.228;2023-04-05T09:41:23;7.30;68.70
12720;DHT22;6424;48.520;11.228;2023-04-05T09:43:51;7.40;69.50
12720;DHT22;6424;48.520;11.228;2023-04-05T09:46:34;7.50;67.80
12720;DHT22;6424;48.520;11.228;2023-04-05T09:49:02;7.50;68.70
12720;DHT22;6424;48.520;11.228;2023-04-05T09:51:43;7.40;68.50
12720;DHT22;6424;48.520;11.228;2023-04-05T09:54:25;7.30;68.80
12720;DHT22;6424;48.520;11.228;2023-04-05T09:57:09;7.40;69.80
12720;DHT22;6424;48.520;11.228;2023-04-05T09:59:50;7.60;69.60
12720;DHT22;6424;48.520;11.228;2023-04-05T10:02:35;7.60;67.30
12720;DHT22;6424;48.520;11.228;2023-04-05T10:05:23;7.40;67.10
12720;DHT22;6424;48.520;11.228;2023-04-05T10:08:04;7.10;66.00
12720;DHT22;6424;48.520;11.228;2023-04-05T10:10:46;6.80;67.40
12720;DHT22;6424;48.520;11.228;2023-04-05T10:13:29;6.70;68.20
12720;DHT22;6424;48.520;11.228;2023-04-05T10:16:12;6.50;68.80
12720;DHT22;6424;48.520;11.228;2023-04-05T10:18:49;6.60;68.70
12720;DHT22;6424;48.520;11.228;2023-04-05T10:21:21;6.70;69.50
12720;DHT22;6424;48.520;11.228;2023-04-05T10:27:04;6.70;67.60
12720;DHT22;6424;48.520;11.228;2023-04-05T10:39:00;5.90;69.80
12720;DHT22;6424;48.520;11.228;2023-04-05T10:41:48;5.80;71.70
12720;DHT22;6424;48.520;11.228;2023-04-05T10:44:14;5.90;72.60
12720;DHT22;6424;48.520;11.228;2023-04-05T10:46:56;6.20;69.60
12720;DHT22;6424;48.520;11.228;2023-04-05T10:49:46;6.30;69.10
12720;DHT22;6424;48.520;11.228;2023-04-05T10:52:29;6.20;69.90
12720;DHT22;6424;48.520;11.228;2023-04-05T10:55:10;6.10;70.30
12720;DHT22;6424;48.520;11.228;2023-04-05T10:57:53;5.90;71.20
12720;DHT22;6424;48.520;11.228;2023-04-05T11:00:34;6.00;70.30
12720;DHT22;6424;48.520;11.228;2023-04-05T11:09:17;6.70;68.40
12720;DHT22;6424;48.520;11.228;2023-04-05T11:11:50;6.80;67.50
12720;DHT22;6424;48.520;11.228;2023-04-05T11:14:35;6.80;67.20
12720;DHT22;6424;48.520;11.228;2023-04-05T11:17:27;6.90;67.50
12720;DHT22;6424;48.520;11.228;2023-04-05T11:20:10;7.00;66.10
12720;DHT22;6424;48.520;11.228;2023-04-05T11:22:36;7.10;65.90
12720;DHT22;6424;48.520;11.228;2023-04-05T11:25:23;7.10;66.10
12720;DHT22;6424;48.520;11.228;2023-04-05T11:28:04;7.20;67.40
12720;DHT22;6424;48.520;11.228;2023-04-05T11:30:49;7.30;66.90
12720;DHT22;6424;48.520;11.228;2023-04-05T11:36:42;7.20;67.00
12720;DHT22;6424;48.520;11.228;2023-04-05T11:39:25;7.30;67.00
12720;DHT22;6424;48.520;11.228;2023-04-05T11:42:10;7.10;67.50
12720;DHT22;6424;48.520;11.228;2023-04-05T11:44:53;7.10;66.70
12720;DHT22;6424;48.520;11.228;2023-04-05T11:47:19;7.30;67.60
12720;DHT22;6424;48.520;11.228;2023-04-05T11:50:01;7.50;67.40
12720;DHT22;6424;48.520;11.228;2023-04-05T11:52:27;7.40;65.20
12720;DHT22;6424;48.520;11.228;2023-04-05T11:55:07;7.30;65.00
12720;DHT22;6424;48.520;11.228;2023-04-05T11:57:51;7.30;65.20
12720;DHT22;6424;48.520;11.228;2023-04-05T12:00:17;7.40;65.30
12720;DHT22;6424;48.520;11.228;2023-04-05T12:02:44;7.40;66.10
12720;DHT22;6424;48.520;11.228;2023-04-05T12:05:24;7.50;66.10
12720;DHT22;6424;48.520;11.228;2023-04-05T12:07:53;7.10;65.40
12720;DHT22;6424;48.520;11.228;2023-04-05T12:10:34;7.10;66.90
12720;DHT22;6424;48.520;11.228;2023-04-05T12:13:27;6.90;64.30
12720;DHT22;6424;48.520;11.228;2023-04-05T12:16:08;7.00;64.60
12720;DHT22;6424;48.520;11.228;2023-04-05T12:21:34;7.10;63.40
12720;DHT22;6424;48.520;11.228;2023-04-05T12:24:15;7.00;63.00
12720;DHT22;6424;48.520;11.228;2023-04-05T12:26:56;7.10;63.00
12720;DHT22;6424;48.520;11.228;2023-04-05T12:29:37;7.40;65.20
12720;DHT22;6424;48.520;11.228;2023-04-05T12:32:18;7.80;65.00
12720;DHT22;6424;48.520;11.228;2023-04-05T12:34:59;8.10;61.80
12720;DHT22;6424;48.520;11.228;2023-04-05T12:37:40;8.20;59.60
12720;DHT22;6424;48.520;11.228;2023-04-05T12:40:22;8.20;60.50
12720;DHT22;6424;48.520;11.228;2023-04-05T12:43:06;8.30;59.10
12720;DHT22;6424;48.520;11.228;2023-04-05T12:45:47;8.30;58.10
12720;DHT22;6424;48.520;11.228;2023-04-05T12:48:29;8.30;61.40
12720;DHT22;6424;48.520;11.228;2023-04-05T12:51:14;8.40;61.90
12720;DHT22;6424;48.520;11.228;2023-04-05T12:53:56;8.50;61.30
12720;DHT22;6424;48.520;11.228;2023-04-05T12:56:37;8.50;62.80
12720;DHT22;6424;48.520;11.228;2023-04-05T12:59:05;8.50;63.20
12720;DHT22;6424;48.520;11.228;2023-04-05T13:01:32;8.40;62.50
12720;DHT22;6424;48.520;11.228;2023-04-05T13:04:13;8.40;63.90
12720;DHT22;6424;48.520;11.228;2023-04-05T13:06:54;8.10;62.50
12720;DHT22;6424;48.520;11.228;2023-04-05T13:09:35;8.00;63.50
12720;DHT22;6424;48.520;11.228;2023-04-05T13:12:16;8.10;64.10
12720;DHT22;6424;48.520;11.228;2023-04-05T13:14:42;8.10;61.60
12720;DHT22;6424;48.520;11.228;2023-04-05T13:17:23;8.20;62.00
12720;DHT22;6424;48.520;11.228;2023-04-05T13:20:04;8.20;63.60
12720;DHT22;6424;48.520;11.228;2023-04-05T13:22:45;8.20;62.00
12720;DHT22;6424;48.520;11.228;2023-04-05T13:25:26;8.30;61.20
12720;DHT22;6424;48.520;11.228;2023-04-05T13:28:08;8.40;62.80
12720;DHT22;6424;48.520;11.228;2023-04-05T13:30:49;8.50;63.00
12720;DHT22;6424;48.520;11.228;2023-04-05T13:33:29;8.50;61.60
12720;DHT22;6424;48.520;11.228;2023-04-05T13:36:10;8.20;62.30
12720;DHT22;6424;48.520;11.228;2023-04-05T13:38:51;7.70;63.90
12720;DHT22;6424;48.520;11.228;2023-04-05T13:41:32;7.10;64.90
12720;DHT22;6424;48.520;11.228;2023-04-05T13:44:13;6.80;65.00
12720;DHT22;6424;48.520;11.228;2023-04-05T13:46:54;6.60;65.30
12720;DHT22;6424;48.520;11.228;2023-04-05T13:49:34;6.40;66.60
12720;DHT22;6424;48.520;11.228;2023-04-05T13:52:15;6.30;66.10
12720;DHT22;6424;48.520;11.228;2023-04-05T13:54:42;6.20;67.20
12720;DHT22;6424;48.520;11.228;2023-04-05T13:57:23;6.40;66.40
12720;DHT22;6424;48.520;11.228;2023-04-05T14:00:05;6.70;66.00
12720;DHT22;6424;48.520;11.228;2023-04-05T14:02:32;6.90;64.40
12720;DHT22;6424;48.520;11.228;2023-04-05T14:05:13;7.10;65.00
12720;DHT22;6424;48.520;11.228;2023-04-05T14:07:54;7.40;65.50
12720;DHT22;6424;48.520;11.228;2023-04-05T14:10:35;7.60;65.00
12720;DHT22;6424;48.520;11.228;2023-04-05T14:13:16;7.80;64.20
12720;DHT22;6424;48.520;11.228;2023-04-05T14:15:57;7.80;63.50
12720;DHT22;6424;48.520;11.228;2023-04-05T14:18:23;8.00;64.70
12720;DHT22;6424;48.520;11.228;2023-04-05T14:21:03;8.00;63.00
12720;DHT22;6424;48.520;11.228;2023-04-05T14:23:45;8.00;62.90
12720;DHT22;6424;48.520;11.228;2023-04-05T14:26:26;7.90;63.10
12720;DHT22;6424;48.520;11.228;2023-04-05T14:29:07;7.60;62.70
12720;DHT22;6424;48.520;11.228;2023-04-05T14:31:48;7.50;63.60
12720;DHT22;6424;48.520;11.228;2023-04-05T14:34:29;7.50;63.50
12720;DHT22;6424;48.520;11.228;2023-04-05T14:37:11;7.70;64.00
12720;DHT22;6424;48.520;11.228;2023-04-05T14:39:52;7.90;62.60
12720;DHT22;6424;48.520;11.228;2023-04-05T14:42:32;7.60;62.40
12720;DHT22;6424;48.520;11.228;2023-04-05T14:44:58;7.10;63.60
12720;DHT22;6424;48.520;11.228;2023-04-05T14:47:39;6.90;64.00
12720;DHT22;6424;48.520;11.228;2023-04-05T14:50:20;7.00;64.90
12720;DHT22;6424;48.520;11.228;2023-04-05T14:53:01;7.10;64.30
12720;DHT22;6424;48.520;11.228;2023-04-05T14:55:42;7.30;65.60
12720;DHT22;6424;48.520;11.228;2023-04-05T14:58:23;7.50;65.00
12720;DHT22;6424;48.520;11.228;2023-04-05T15:00:49;7.60;63.90
12720;DHT22;6424;48.520;11.228;2023-04-05T15:03:30;7.30;63.40
12720;DHT22;6424;48.520;11.228;2023-04-05T15:06:11;7.50;64.10
12720;DHT22;6424;48.520;11.228;2023-04-05T15:08:52;7.60;63.20
12720;DHT22;6424;48.520;11.228;2023-04-05T15:11:35;7.80;63.50
12720;DHT22;6424;48.520;11.228;2023-04-05T15:14:18;8.00;64.30
12720;DHT22;6424;48.520;11.228;2023-04-05T15:16:59;8.10;63.00
12720;DHT22;6424;48.520;11.228;2023-04-05T15:19:39;8.10;60.90
12720;DHT22;6424;48.520;11.228;2023-04-05T15:22:20;8.00;60.80
12720;DHT22;6424;48.520;11.228;2023-04-05T15:25:03;8.00;62.00
12720;DHT22;6424;48.520;11.228;2023-04-05T15:27:44;8.00;61.40
12720;DHT22;6424;48.520;11.228;2023-04-05T15:30:10;8.00;60.00
12720;DHT22;6424;48.520;11.228;2023-04-05T15:32:36;7.90;59.60
12720;DHT22;6424;48.520;11.228;2023-04-05T15:35:18;7.90;60.30
12720;DHT22;6424;48.520;11.228;2023-04-05T15:37:58;7.80;61.20
12720;DHT22;6424;48.520;11.228;2023-04-05T15:40:41;7.70;60.70
12720;DHT22;6424;48.520;11.228;2023-04-05T15:43:23;7.40;61.50
12720;DHT22;6424;48.520;11.228;2023-04-05T15:46:04;7.30;61.50
12720;DHT22;6424;48.520;11.228;2023-04-05T15:48:30;7.30;62.50
12720;DHT22;6424;48.520;11.228;2023-04-05T15:51:11;7.20;61.80
12720;DHT22;6424;48.520;11.228;2023-04-05T15:53:37;7.10;62.40
12720;DHT22;6424;48.520;11.228;2023-04-05T15:56:18;7.10;63.20
12720;DHT22;6424;48.520;11.228;2023-04-05T15:58:58;7.00;62.30
12720;DHT22;6424;48.520;11.228;2023-04-05T16:01:39;7.10;62.10
12720;DHT22;6424;48.520;11.228;2023-04-05T16:04:20;7.10;61.90
12720;DHT22;6424;48.520;11.228;2023-04-05T16:07:02;7.20;62.00
12720;DHT22;6424;48.520;11.228;2023-04-05T16:09:43;7.30;62.60
12720;DHT22;6424;48.520;11.228;2023-04-05T16:12:24;7.30;62.40
12720;DHT22;6424;48.520;11.228;2023-04-05T16:15:05;7.30;61.20
12720;DHT22;6424;48.520;11.228;2023-04-05T16:17:46;7.30;60.30
12720;DHT22;6424;48.520;11.228;2023-04-05T16:20:27;7.20;60.30
12720;DHT22;6424;48.520;11.228;2023-04-05T16:23:07;7.00;61.50
12720;DHT22;6424;48.520;11.228;2023-04-05T16:25:48;7.00;60.90
12720;DHT22;6424;48.520;11.228;2023-04-05T16:28:29;7.00;61.20
12720;DHT22;6424;48.520;11.228;2023-04-05T16:31:11;7.00;60.80
12720;DHT22;6424;48.520;11.228;2023-04-05T16:33:37;7.00;61.30
12720;DHT22;6424;48.520;11.228;2023-04-05T16:36:17;7.00;61.30
12720;DHT22;6424;48.520;11.228;2023-04-05T16:38:58;7.00;62.10
12720;DHT22;6424;48.520;11.228;2023-04-05T16:41:24;7.00;62.10
12720;DHT22;6424;48.520;11.228;2023-04-05T16:44:05;7.00;61.00
12720;DHT22;6424;48.520;11.228;2023-04-05T16:46:46;7.00;61.30
12720;DHT22;6424;48.520;11.228;2023-04-05T16:49:27;6.90;62.00
12720;DHT22;6424;48.520;11.228;2023-04-05T16:51:52;6.90;61.70
12720;DHT22;6424;48.520;11.228;2023-04-05T16:54:18;6.90;61.90
12720;DHT22;6424;48.520;11.228;2023-04-05T16:56:59;6.80;63.10
12720;DHT22;6424;48.520;11.228;2023-04-05T16:59:40;6.70;62.70
12720;DHT22;6424;48.520;11.228;2023-04-05T17:02:21;6.60;62.30
12720;DHT22;6424;48.520;11.228;2023-04-05T17:05:02;6.50;63.40
12720;DHT22;6424;48.520;11.228;2023-04-05T17:07:43;6.30;63.30
12720;DHT22;6424;48.520;11.228;2023-04-05T17:10:24;6.30;63.40
12720;DHT22;6424;48.520;11.228;2023-04-05T17:13:05;6.20;63.20
12720;DHT22;6424;48.520;11.228;2023-04-05T17:15:46;6.10;63.70
12720;DHT22;6424;48.520;11.228;2023-04-05T17:18:28;6.10;63.70
12720;DHT22;6424;48.520;11.228;2023-04-05T17:21:09;6.10;64.10
12720;DHT22;6424;48.520;11.228;2023-04-05T17:23:37;6.00;65.30
12720;DHT22;6424;48.520;11.228;2023-04-05T17:26:18;5.90;65.10
12720;DHT22;6424;48.520;11.228;2023-04-05T17:28:59;5.90;64.90
12720;DHT22;6424;48.520;11.228;2023-04-05T17:31:40;5.80;64.90
12720;DHT22;6424;48.520;11.228;2023-04-05T17:34:22;5.80;65.40
12720;DHT22;6424;48.520;11.228;2023-04-05T17:37:03;5.70;65.30
12720;DHT22;6424;48.520;11.228;2023-04-05T17:39:29;5.60;66.20
12720;DHT22;6424;48.520;11.228;2023-04-05T17:42:10;5.50;68.70